07:12
Airports
History
Links
Donate
Help keep this website running!
PayPal
Bitcoin
This page is community maintained. The information is intended for PC simulator navigation or reference.
Always use approved charts for navigation.
LFKC
St Catherine
St Catherine (LFKC)
Calvi, Corse, France (20260)
(C)
Lat/Lng:42° 31' 50.74" N / 8° 47' 34.53" E
42.530762 / 8.792925
Elevation:208'ft / 63mMSL
ID / ICAO:LFKC
Runways:1
Longest:18-36
Concrete 2,317m / 7,603ft
Controlled:Yes
METAR07:00 GMT 2017-09-23
Altimeter: 30.15
Visibility: 6.2 statute miles
Wind: 2 knots (from VRB°)
Temp: 19°c / 66°f
Humidity: 63.8%

METAR: LFKC 230700Z AUTO VRB02KT CAVOK 19/12 Q1021 NOSIG

(Powered by phpweather)
Airport Radio Frequencies
LFKC ATIS: 131.17
Ground: 121.7
Tower: 120.8, 123.2
Approach: 123.82
Nearby VORs <50NM
Nearby NDBs
Runway 18 / 36
Dimensions:2317.4 x 39.9m 7603' x 131'ft
Surface:Concrete
Edge Lights:Medium intensity
Runway 18 [A]Runway 36 [B]
Heading:179°TH 359°TH
Lat:
Lng:
42° 32' 28.21"N
8° 47' 34.18"E
42° 31' 13.27"N
8° 47' 34.88"E
User Notes and Comments
42° 31' 50.74" N / 8° 47' 34.53" E
Distance To
Airport ID:
Nearby Airports
(C) Corte 26.1 NM
LFKT SE 129°
(C) Bastia Poretta 35.2 NM
LFKB ( WX ) E 87°
(C) Moriani Plage 38.9 NM
2021 ESE 107°
(C) Napoleon Bonaparte 42.1 NM
LFKJ ( WX ) S 179°
(U) GHISONACCIA ALZITONE 45.3 NM
LFKG SE 136°
(C) Solenzara 52.3 NM
LFKS ( WX ) SE 143°
(C) Propriano 60.3 NM
LFKO S 175°
VFR Chart
Flight Planning at SkyVector.com